createdAt,value
2019-02-19T00:02:22.530Z,63.46
2019-02-19T00:05:36.236Z,63.51
2019-02-19T00:08:50.003Z,63.20
2019-02-19T00:12:04.120Z,63.52
2019-02-19T00:15:17.635Z,63.54
2019-02-19T00:18:31.161Z,63.08
2019-02-19T00:21:44.653Z,63.02
2019-02-19T00:24:58.125Z,62.94
2019-02-19T00:28:11.624Z,62.57
2019-02-19T00:31:25.211Z,62.49
2019-02-19T00:34:39.015Z,62.27
2019-02-19T00:37:52.835Z,62.45
2019-02-19T00:41:06.415Z,62.39
2019-02-19T00:44:19.899Z,62.51
2019-02-19T00:47:33.829Z,62.61
2019-02-19T00:50:47.318Z,63.04
2019-02-19T00:54:00.812Z,62.68
2019-02-19T00:57:14.411Z,62.75
2019-02-19T01:00:28.325Z,62.58
2019-02-19T01:03:41.825Z,62.42
2019-02-19T01:06:55.536Z,61.93
2019-02-19T01:10:09.231Z,61.39
2019-02-19T01:13:23.030Z,61.33
2019-02-19T01:16:36.518Z,61.76
2019-02-19T01:19:50.026Z,61.80
2019-02-19T01:23:03.666Z,61.24
2019-02-19T01:26:17.241Z,61.59
2019-02-19T01:29:30.890Z,61.58
2019-02-19T01:32:44.430Z,61.57
2019-02-19T01:35:57.891Z,61.54
2019-02-19T01:39:11.796Z,61.97
2019-02-19T01:42:25.508Z,62.02
2019-02-19T01:45:39.427Z,61.12
2019-02-19T01:48:52.946Z,61.92
2019-02-19T01:52:06.532Z,63.01
2019-02-19T01:55:20.071Z,62.71
2019-02-19T01:58:33.582Z,62.38
2019-02-19T02:01:47.173Z,62.41
2019-02-19T02:05:00.669Z,62.73
2019-02-19T02:08:14.513Z,62.38
2019-02-19T02:11:28.000Z,62.68
2019-02-19T02:14:41.867Z,62.61
2019-02-19T02:17:55.668Z,62.91
2019-02-19T02:21:09.185Z,63.18
2019-02-19T02:24:22.766Z,62.55
2019-02-19T02:27:36.365Z,62.92
2019-02-19T02:30:50.109Z,62.43
2019-02-19T02:34:03.579Z,62.69
2019-02-19T02:37:17.107Z,62.49
2019-02-19T02:40:30.604Z,62.88
2019-02-19T02:43:44.591Z,63.11
2019-02-19T02:46:58.074Z,62.92
2019-02-19T02:50:11.916Z,63.47
2019-02-19T02:53:25.500Z,63.38
2019-02-19T02:56:39.231Z,63.79
2019-02-19T02:59:52.829Z,64.47
2019-02-19T03:03:06.430Z,64.50
2019-02-19T03:06:45.790Z,64.05
2019-02-19T03:09:59.324Z,64.33
2019-02-19T03:13:12.826Z,64.31
2019-02-19T03:16:26.312Z,64.38
2019-02-19T03:19:40.119Z,65.40
2019-02-19T03:22:53.733Z,66.18
2019-02-19T03:26:07.222Z,65.97
2019-02-19T03:29:20.706Z,66.26
2019-02-19T03:32:34.189Z,65.60
2019-02-19T03:35:47.662Z,65.94
2019-02-19T03:39:01.151Z,65.87
2019-02-19T03:42:14.757Z,65.96
2019-02-19T03:45:28.321Z,65.55
2019-02-19T03:48:41.907Z,65.46
2019-02-19T03:51:55.423Z,65.49
2019-02-19T03:55:09.682Z,65.79
2019-02-19T03:58:23.281Z,65.67
2019-02-19T04:01:37.348Z,66.01
2019-02-19T04:04:51.324Z,65.45
2019-02-19T04:08:04.804Z,66.26
2019-02-19T04:11:18.390Z,66.19
2019-02-19T04:14:31.903Z,66.15
2019-02-19T04:17:45.853Z,66.24
2019-02-19T04:20:59.352Z,66.25
2019-02-19T04:24:13.085Z,66.45
2019-02-19T04:27:26.919Z,66.70
2019-02-19T04:30:41.044Z,67.03
2019-02-19T04:33:54.533Z,66.93
2019-02-19T04:37:08.358Z,67.44
2019-02-19T04:40:21.831Z,67.46
2019-02-19T04:43:35.345Z,67.03
2019-02-19T04:46:48.925Z,67.47
2019-02-19T04:50:03.122Z,67.12
2019-02-19T04:53:16.859Z,67.51
2019-02-19T04:56:30.358Z,67.44
2019-02-19T04:59:43.942Z,67.41
2019-02-19T05:02:57.455Z,68.08
2019-02-19T05:06:11.249Z,67.78
2019-02-19T05:09:25.033Z,67.31
2019-02-19T05:12:38.528Z,67.67
2019-02-19T05:15:52.058Z,67.43
2019-02-19T05:19:05.667Z,67.34
2019-02-19T05:22:19.149Z,68.26
2019-02-19T05:25:32.884Z,68.07
2019-02-19T05:28:46.709Z,67.53
2019-02-19T05:32:00.569Z,67.57
2019-02-19T05:35:14.343Z,67.80
2019-02-19T05:38:27.817Z,67.61
2019-02-19T05:41:41.403Z,68.23
2019-02-19T05:44:54.894Z,67.91
2019-02-19T05:48:08.691Z,67.88
2019-02-19T05:51:22.371Z,68.20
2019-02-19T05:54:36.142Z,68.26
2019-02-19T05:57:49.639Z,68.77
2019-02-19T06:01:03.111Z,68.76
2019-02-19T06:04:16.583Z,68.75
2019-02-19T06:07:30.042Z,69.19
2019-02-19T06:10:44.345Z,68.94
2019-02-19T06:13:58.217Z,68.99
2019-02-19T06:17:11.816Z,68.56
2019-02-19T06:20:25.446Z,68.57
2019-02-19T06:23:38.859Z,69.37
2019-02-19T06:26:52.331Z,69.44
2019-02-19T06:30:08.806Z,69.93
2019-02-19T06:33:22.347Z,69.49
2019-02-19T06:36:35.957Z,69.63
2019-02-19T06:39:49.699Z,69.52
2019-02-19T06:43:03.386Z,70.08
2019-02-19T06:46:16.863Z,70.21
2019-02-19T06:49:30.334Z,70.81
2019-02-19T06:52:43.865Z,70.45
2019-02-19T06:55:57.752Z,70.82
2019-02-19T06:59:11.476Z,70.83
2019-02-19T07:02:42.688Z,71.44
2019-02-19T07:05:56.183Z,71.56
2019-02-19T07:09:09.650Z,71.12
2019-02-19T07:12:23.145Z,70.88
2019-02-19T07:15:36.731Z,70.47
2019-02-19T07:18:50.441Z,70.12
2019-02-19T07:22:03.912Z,69.99
2019-02-19T07:25:17.677Z,69.82
2019-02-19T07:28:31.367Z,69.96
2019-02-19T07:31:44.975Z,69.30
2019-02-19T07:34:58.443Z,69.56
2019-02-19T07:38:11.924Z,69.10
2019-02-19T07:41:25.410Z,69.29
2019-02-19T07:44:39.297Z,69.21
2019-02-19T07:47:52.761Z,69.08
2019-02-19T07:51:06.574Z,69.65
2019-02-19T07:54:20.401Z,70.19
2019-02-19T07:57:33.887Z,69.97
2019-02-19T08:00:47.595Z,70.55
2019-02-19T08:04:01.565Z,72.00
2019-02-19T08:07:15.078Z,72.75
2019-02-19T08:10:28.838Z,73.98
2019-02-19T08:13:42.316Z,75.06
2019-02-19T08:16:55.828Z,75.59
2019-02-19T08:20:15.951Z,75.91
2019-02-19T08:23:24.909Z,76.47
2019-02-19T08:26:38.683Z,76.72
2019-02-19T08:29:52.205Z,76.56
2019-02-19T08:33:05.734Z,76.94
2019-02-19T08:36:19.459Z,76.69
2019-02-19T08:39:32.963Z,77.13
2019-02-19T08:42:46.711Z,77.67
2019-02-19T08:46:00.213Z,77.57
2019-02-19T08:49:13.872Z,77.43
2019-02-19T08:52:27.406Z,77.36
2019-02-19T08:55:40.892Z,77.57
2019-02-19T08:58:54.420Z,77.71
2019-02-19T09:02:08.070Z,78.53
2019-02-19T09:05:21.593Z,78.19
2019-02-19T09:08:35.221Z,78.10
2019-02-19T09:11:48.837Z,78.09
2019-02-19T09:15:02.591Z,78.17
2019-02-19T09:18:16.265Z,78.22
2019-02-19T09:21:30.037Z,77.91
2019-02-19T09:24:43.667Z,78.11
2019-02-19T09:27:57.311Z,78.79
2019-02-19T09:31:11.062Z,78.11
2019-02-19T09:34:24.657Z,78.55
2019-02-19T09:37:38.383Z,78.26
2019-02-19T09:40:51.938Z,78.64
2019-02-19T09:44:05.459Z,78.39
2019-02-19T09:47:18.947Z,78.23
2019-02-19T09:50:32.450Z,78.36
2019-02-19T09:53:45.924Z,78.86
2019-02-19T09:56:59.490Z,79.04
2019-02-19T10:00:13.550Z,79.60
2019-02-19T10:03:27.111Z,79.40
2019-02-19T10:06:40.614Z,79.84
2019-02-19T10:09:54.111Z,80.54
2019-02-19T10:13:07.625Z,80.15
2019-02-19T10:16:21.159Z,79.53
2019-02-19T10:19:34.894Z,80.63
2019-02-19T10:22:48.982Z,79.34
2019-02-19T10:26:02.658Z,78.99
2019-02-19T10:29:16.130Z,79.79
2019-02-19T10:32:30.120Z,80.03
2019-02-19T10:35:43.961Z,79.21
2019-02-19T10:38:57.437Z,79.68
2019-02-19T10:42:10.922Z,78.83
2019-02-19T10:45:24.524Z,79.97
2019-02-19T10:48:38.238Z,78.02
2019-02-19T10:51:51.739Z,76.82
2019-02-19T10:55:05.363Z,77.96
2019-02-19T10:58:23.038Z,75.71
2019-02-19T11:01:34.781Z,73.17
2019-02-19T11:04:48.250Z,73.13
2019-02-19T11:08:01.760Z,72.93
2019-02-19T11:11:15.232Z,73.32
2019-02-19T11:14:28.702Z,72.30
2019-02-19T11:17:42.469Z,69.95
2019-02-19T11:20:56.190Z,70.21
2019-02-19T11:24:09.683Z,69.20
2019-02-19T11:27:23.285Z,69.76
2019-02-19T11:30:36.813Z,69.30
2019-02-19T11:33:50.277Z,68.15
2019-02-19T11:37:03.961Z,66.19
2019-02-19T11:40:17.510Z,65.64
2019-02-19T11:43:30.993Z,64.61
2019-02-19T11:46:44.522Z,62.49
2019-02-19T11:49:58.021Z,61.53
2019-02-19T11:53:11.518Z,62.19
2019-02-19T11:56:25.125Z,58.91
2019-02-19T11:59:38.769Z,59.13
2019-02-19T12:02:52.348Z,55.17
2019-02-19T12:06:06.270Z,54.21
2019-02-19T12:09:20.023Z,51.16
2019-02-19T12:12:33.819Z,49.54
2019-02-19T12:15:47.459Z,45.68
2019-02-19T12:19:00.970Z,46.41
2019-02-19T12:22:14.778Z,45.93
2019-02-19T12:25:28.269Z,46.85
2019-02-19T12:28:41.850Z,47.23
2019-02-19T12:31:55.770Z,50.26
2019-02-19T12:35:09.474Z,50.87
2019-02-19T12:38:23.239Z,52.25
2019-02-19T12:41:36.711Z,51.20
2019-02-19T12:44:50.176Z,52.63
2019-02-19T12:48:04.175Z,50.51
2019-02-19T12:51:26.099Z,49.29
2019-02-19T12:54:33.553Z,50.11
2019-02-19T12:57:47.031Z,52.45
2019-02-19T13:01:00.896Z,53.59
2019-02-19T13:04:14.977Z,54.31
2019-02-19T13:07:28.528Z,53.26
2019-02-19T13:10:42.121Z,52.15
2019-02-19T13:13:55.628Z,50.27
2019-02-19T13:17:09.770Z,50.71
2019-02-19T13:20:23.367Z,50.34
2019-02-19T13:23:37.102Z,52.11
2019-02-19T13:26:50.573Z,52.22
2019-02-19T13:30:05.559Z,50.83
2019-02-19T13:33:19.030Z,49.49
2019-02-19T13:36:32.854Z,47.50
2019-02-19T13:39:46.707Z,47.99
2019-02-19T13:43:00.838Z,47.72
2019-02-19T13:46:14.414Z,47.29
2019-02-19T13:49:27.970Z,46.38
2019-02-19T13:53:03.691Z,48.09
2019-02-19T13:56:17.330Z,45.83
2019-02-19T13:59:30.915Z,47.49
2019-02-19T14:02:44.418Z,46.85
2019-02-19T14:05:58.757Z,44.45
2019-02-19T14:09:12.252Z,46.37
2019-02-19T14:12:25.737Z,46.75
2019-02-19T14:15:49.840Z,47.86
2019-02-19T14:19:21.199Z,50.13
2019-02-19T14:23:00.877Z,49.00
2019-02-19T14:26:25.318Z,46.99
2019-02-19T14:29:56.056Z,47.17
2019-02-19T14:33:49.094Z,48.84
2019-02-19T14:37:18.636Z,48.15
2019-02-19T14:40:44.212Z,48.83
2019-02-19T14:44:21.339Z,48.42
2019-02-19T14:47:53.808Z,49.28
2019-02-19T14:51:26.028Z,49.88
2019-02-19T14:55:05.255Z,50.14
2019-02-19T14:58:37.623Z,50.55
2019-02-19T15:02:20.804Z,53.60
2019-02-19T15:05:56.510Z,54.43
2019-02-19T15:09:36.163Z,55.94
2019-02-19T15:13:11.831Z,55.91
2019-02-19T15:16:36.477Z,55.60
2019-02-19T15:20:09.678Z,56.79
2019-02-19T15:23:39.906Z,56.78
2019-02-19T15:27:02.730Z,57.63
2019-02-19T15:30:23.360Z,57.03
2019-02-19T15:33:57.184Z,56.79
2019-02-19T15:37:28.976Z,57.25
2019-02-19T15:41:00.777Z,57.19
2019-02-19T15:44:25.202Z,56.44
2019-02-19T15:47:56.781Z,56.61
2019-02-19T15:51:31.420Z,56.76
2019-02-19T15:55:03.137Z,57.30
2019-02-19T15:58:35.067Z,57.84
2019-02-19T16:02:05.158Z,58.09
2019-02-19T16:05:41.326Z,58.32
2019-02-19T16:09:20.974Z,57.57
2019-02-19T16:12:44.875Z,58.22
2019-02-19T16:16:11.476Z,59.19
2019-02-19T16:19:33.852Z,59.17
2019-02-19T16:23:04.893Z,59.74
2019-02-19T16:26:38.961Z,60.01
2019-02-19T16:30:01.794Z,59.64
2019-02-19T16:33:41.136Z,60.60
2019-02-19T16:37:03.515Z,61.09
2019-02-19T16:40:23.989Z,61.77
2019-02-19T16:43:56.049Z,61.86
2019-02-19T16:47:28.453Z,62.42
2019-02-19T16:51:00.476Z,62.54
2019-02-19T16:54:33.723Z,63.12
2019-02-19T16:58:22.450Z,63.52
2019-02-19T17:01:43.759Z,63.56
2019-02-19T17:05:06.039Z,64.11
2019-02-19T17:08:42.699Z,63.95
2019-02-19T17:12:27.762Z,64.61
2019-02-19T17:15:52.287Z,64.44
2019-02-19T17:19:31.568Z,64.25
2019-02-19T17:22:50.335Z,64.93
2019-02-19T17:26:27.659Z,66.61
2019-02-19T17:30:00.840Z,67.24
2019-02-19T17:33:32.513Z,67.99
2019-02-19T17:37:03.254Z,69.03
2019-02-19T17:40:22.756Z,69.33
2019-02-19T17:43:47.079Z,70.35
2019-02-19T17:47:35.546Z,71.53
2019-02-19T17:50:57.312Z,71.26
2019-02-19T17:54:24.209Z,71.13
2019-02-19T17:57:48.540Z,71.74
2019-02-19T18:01:09.451Z,72.36
2019-02-19T18:04:31.455Z,72.34
2019-02-19T18:08:19.971Z,72.45
2019-02-19T18:11:56.388Z,72.59
2019-02-19T18:15:30.065Z,72.62
2019-02-19T18:18:49.123Z,73.09
2019-02-19T18:22:02.907Z,73.62
2019-02-19T18:25:16.476Z,73.65
2019-02-19T18:28:30.524Z,74.02
2019-02-19T18:31:44.268Z,73.91
2019-02-19T18:34:57.764Z,73.96
2019-02-19T18:38:11.560Z,74.12
2019-02-19T18:41:25.219Z,74.33
2019-02-19T18:44:38.784Z,74.64
2019-02-19T18:47:52.412Z,74.94
2019-02-19T18:51:06.545Z,75.20
2019-02-19T18:54:20.068Z,75.33
2019-02-19T18:57:33.560Z,76.47
2019-02-19T19:00:47.373Z,76.81
2019-02-19T19:04:00.862Z,77.10
2019-02-19T19:07:14.553Z,77.75
2019-02-19T19:10:28.041Z,78.03
2019-02-19T19:13:41.627Z,78.11
2019-02-19T19:16:55.301Z,78.31
2019-02-19T19:20:09.036Z,78.74
2019-02-19T19:23:22.511Z,78.52
2019-02-19T19:26:36.098Z,78.78
2019-02-19T19:29:50.091Z,78.45
2019-02-19T19:33:03.817Z,78.40
2019-02-19T19:36:17.832Z,78.59
2019-02-19T19:39:31.331Z,79.30
2019-02-19T19:42:44.820Z,78.95
2019-02-19T19:45:58.676Z,79.35
2019-02-19T19:49:12.174Z,79.27
2019-02-19T19:52:25.764Z,79.72
2019-02-19T19:55:39.520Z,80.01
2019-02-19T19:58:53.018Z,79.76
2019-02-19T20:02:06.824Z,79.25
2019-02-19T20:05:20.414Z,79.80
2019-02-19T20:08:33.971Z,80.23
2019-02-19T20:11:48.480Z,80.65
2019-02-19T20:15:02.201Z,80.54
2019-02-19T20:18:16.244Z,80.57
2019-02-19T20:21:29.737Z,81.01
2019-02-19T20:24:43.318Z,81.05
2019-02-19T20:27:56.910Z,81.25
2019-02-19T20:31:10.408Z,81.53
2019-02-19T20:34:24.257Z,81.91
2019-02-19T20:37:37.961Z,81.83
2019-02-19T20:40:51.790Z,82.86
2019-02-19T20:44:05.444Z,83.46
2019-02-19T20:47:19.162Z,83.43
2019-02-19T20:50:32.885Z,83.25
2019-02-19T20:53:47.006Z,83.47
2019-02-19T20:57:00.498Z,83.13
2019-02-19T21:00:15.156Z,83.13
2019-02-19T21:03:29.076Z,83.23
2019-02-19T21:06:42.702Z,83.55
2019-02-19T21:09:56.179Z,83.97
2019-02-19T21:13:11.266Z,83.86
2019-02-19T21:16:24.799Z,83.97
2019-02-19T21:19:38.415Z,84.28
2019-02-19T21:22:51.937Z,83.79
2019-02-19T21:26:05.679Z,84.29
2019-02-19T21:29:19.539Z,84.92
2019-02-19T21:32:33.042Z,84.58
2019-02-19T21:35:49.187Z,84.67
2019-02-19T21:39:04.544Z,84.30
2019-02-19T21:42:18.097Z,84.20
2019-02-19T21:45:31.981Z,84.15
2019-02-19T21:48:48.152Z,84.41
2019-02-19T21:52:01.242Z,84.27
2019-02-19T21:55:14.854Z,84.41
2019-02-19T21:58:28.334Z,83.95
2019-02-19T22:01:42.119Z,84.01
2019-02-19T22:04:55.894Z,84.17
2019-02-19T22:08:09.467Z,84.71
2019-02-19T22:11:23.264Z,84.22
2019-02-19T22:14:36.795Z,83.77
2019-02-19T22:17:50.278Z,83.25
2019-02-19T22:21:26.401Z,83.16
2019-02-19T22:24:40.223Z,83.56
2019-02-19T22:27:53.715Z,83.81
2019-02-19T22:31:07.365Z,84.67
2019-02-19T22:34:20.868Z,84.62
2019-02-19T22:37:34.335Z,84.49
2019-02-19T22:40:55.025Z,84.53
2019-02-19T22:44:03.440Z,84.68
2019-02-19T22:47:17.898Z,85.01
2019-02-19T22:50:31.502Z,85.14
2019-02-19T22:54:16.695Z,85.31
2019-02-19T22:57:30.348Z,85.28
2019-02-19T23:01:05.331Z,85.20
2019-02-19T23:04:18.799Z,85.19
2019-02-19T23:07:32.292Z,85.83
2019-02-19T23:10:48.290Z,86.17
2019-02-19T23:14:01.984Z,85.51
2019-02-19T23:17:15.755Z,85.29
2019-02-19T23:20:29.245Z,85.00
2019-02-19T23:23:42.735Z,84.77
2019-02-19T23:26:56.267Z,84.87
2019-02-19T23:30:09.973Z,84.73
2019-02-19T23:33:23.504Z,84.77
2019-02-19T23:36:44.209Z,84.44
2019-02-19T23:39:58.451Z,84.20
2019-02-19T23:43:12.248Z,83.86
2019-02-19T23:46:25.755Z,83.93
2019-02-19T23:49:39.239Z,83.79
2019-02-19T23:52:52.877Z,83.87
2019-02-19T23:56:06.383Z,84.68
2019-02-19T23:59:20.185Z,85.22
